createdAt,value
2022-12-11T00:02:13.913Z,10.48
2022-12-11T00:04:40.643Z,9.80
2022-12-11T00:07:07.403Z,10.73
2022-12-11T00:09:34.083Z,10.35
2022-12-11T00:12:02.537Z,10.20
2022-12-11T00:14:29.646Z,11.00
2022-12-11T00:16:56.379Z,11.07
2022-12-11T00:19:23.411Z,11.25
2022-12-11T00:21:50.083Z,14.82
2022-12-11T00:24:16.859Z,13.45
2022-12-11T00:26:43.525Z,14.60
2022-12-11T00:29:14.572Z,12.23
2022-12-11T00:31:42.241Z,12.38
2022-12-11T00:34:09.488Z,13.20
2022-12-11T00:36:36.140Z,14.23
2022-12-11T00:39:03.109Z,11.23
2022-12-11T00:41:30.042Z,12.43
2022-12-11T00:43:56.888Z,12.30
2022-12-11T00:46:23.861Z,12.43
2022-12-11T00:48:50.821Z,12.02
2022-12-11T00:51:18.130Z,13.25
2022-12-11T00:53:44.860Z,12.20
2022-12-11T00:56:14.138Z,11.63
2022-12-11T00:58:40.780Z,12.90
2022-12-11T01:01:23.632Z,12.30
2022-12-11T01:03:52.168Z,10.75
2022-12-11T01:06:22.002Z,12.45
2022-12-11T01:08:49.016Z,11.65
2022-12-11T01:11:17.285Z,11.27
2022-12-11T01:13:43.974Z,13.20
2022-12-11T01:16:16.314Z,12.63
2022-12-11T01:18:43.061Z,11.45
2022-12-11T01:21:13.447Z,12.10
2022-12-11T01:23:40.670Z,13.23
2022-12-11T01:26:13.527Z,11.48
2022-12-11T01:28:41.539Z,11.68
2022-12-11T01:31:10.186Z,12.52
2022-12-11T01:33:37.534Z,12.18
2022-12-11T01:36:16.800Z,13.25
2022-12-11T01:38:44.011Z,11.70
2022-12-11T01:41:10.810Z,12.52
2022-12-11T01:44:00.793Z,12.20
2022-12-11T01:46:28.739Z,12.35
2022-12-11T01:48:56.364Z,10.63
2022-12-11T01:51:24.408Z,12.00
2022-12-11T01:53:57.300Z,10.77
2022-12-11T01:56:24.793Z,12.25
2022-12-11T01:58:56.485Z,11.95
2022-12-11T02:01:37.183Z,11.43
2022-12-11T02:04:04.682Z,11.57
2022-12-11T02:06:43.236Z,12.48
2022-12-11T02:09:14.727Z,12.00
2022-12-11T02:12:19.949Z,11.00
2022-12-11T02:15:11.414Z,11.43
2022-12-11T02:17:47.000Z,12.50
2022-12-11T02:20:40.416Z,11.38
2022-12-11T02:23:09.693Z,11.68
2022-12-11T02:26:01.700Z,11.90
2022-12-11T02:28:46.292Z,10.85
2022-12-11T02:31:16.962Z,11.52
2022-12-11T02:33:59.635Z,12.48
2022-12-11T02:36:30.540Z,13.18
2022-12-11T02:39:01.174Z,13.25
2022-12-11T02:41:30.372Z,13.43
2022-12-11T02:43:58.042Z,13.88
2022-12-11T02:46:25.590Z,11.50
2022-12-11T02:48:54.321Z,12.60
2022-12-11T02:51:28.662Z,11.02
2022-12-11T02:53:59.066Z,12.82
2022-12-11T02:56:33.361Z,12.98
2022-12-11T02:59:08.005Z,13.32
2022-12-11T03:01:34.887Z,12.57
2022-12-11T03:04:01.810Z,11.38
2022-12-11T03:06:36.336Z,12.68
2022-12-11T03:09:05.158Z,12.38
2022-12-11T03:11:31.761Z,11.55
2022-12-11T03:13:59.470Z,12.30
2022-12-11T03:17:00.114Z,11.93
2022-12-11T03:19:36.648Z,12.75
2022-12-11T03:22:14.568Z,13.23
2022-12-11T03:24:46.375Z,11.60
2022-12-11T03:27:26.836Z,12.57
2022-12-11T03:30:05.606Z,13.30
2022-12-11T03:32:51.776Z,12.02
2022-12-11T03:35:27.980Z,14.13
2022-12-11T03:37:58.056Z,12.73
2022-12-11T03:40:28.022Z,13.05
2022-12-11T03:42:57.565Z,13.40
2022-12-11T03:45:27.257Z,12.90
2022-12-11T03:47:56.866Z,13.95
2022-12-11T03:50:28.577Z,14.25
2022-12-11T03:52:55.547Z,11.93
2022-12-11T03:55:22.722Z,13.85
2022-12-11T03:57:49.705Z,12.15
2022-12-11T04:00:20.273Z,12.50
2022-12-11T04:03:13.007Z,12.90
2022-12-11T04:05:52.362Z,13.38
2022-12-11T04:08:23.241Z,15.15
2022-12-11T04:11:13.387Z,16.17
2022-12-11T04:13:41.351Z,15.13
2022-12-11T04:16:08.610Z,15.60
2022-12-11T04:18:54.128Z,13.10
2022-12-11T04:21:39.786Z,17.10
2022-12-11T04:24:16.228Z,18.60
2022-12-11T04:26:45.087Z,17.90
2022-12-11T04:29:12.453Z,18.20
2022-12-11T04:31:39.724Z,18.77
2022-12-11T04:34:06.672Z,19.60
2022-12-11T04:36:33.497Z,18.00
2022-12-11T04:39:00.246Z,19.05
2022-12-11T04:41:28.970Z,17.92
2022-12-11T04:43:55.637Z,19.00
2022-12-11T04:46:24.491Z,16.98
2022-12-11T04:48:57.391Z,17.33
2022-12-11T04:51:24.661Z,17.98
2022-12-11T04:53:51.514Z,19.92
2022-12-11T04:56:19.186Z,19.40
2022-12-11T04:58:47.082Z,19.65
2022-12-11T05:01:20.200Z,17.80
2022-12-11T05:03:48.890Z,18.77
2022-12-11T05:06:15.752Z,18.88
2022-12-11T05:08:43.458Z,20.35
2022-12-11T05:11:14.545Z,20.35
2022-12-11T05:13:43.689Z,19.15
2022-12-11T05:16:13.380Z,19.10
2022-12-11T05:18:40.483Z,18.08
2022-12-11T05:21:11.110Z,18.77
2022-12-11T05:23:38.584Z,20.35
2022-12-11T05:26:17.507Z,18.55
2022-12-11T05:28:44.980Z,20.08
2022-12-11T05:31:17.483Z,16.77
2022-12-11T05:33:46.042Z,20.13
2022-12-11T05:36:22.650Z,18.83
2022-12-11T05:38:50.136Z,18.50
2022-12-11T05:41:19.483Z,18.30
2022-12-11T05:43:48.659Z,17.33
2022-12-11T05:46:19.404Z,21.10
2022-12-11T05:48:48.976Z,18.73
2022-12-11T05:51:17.289Z,16.50
2022-12-11T05:53:45.218Z,18.80
2022-12-11T05:56:15.618Z,19.67
2022-12-11T05:58:43.378Z,18.60
2022-12-11T06:01:13.152Z,18.70
2022-12-11T06:03:39.987Z,18.10
2022-12-11T06:06:07.654Z,19.30
2022-12-11T06:08:34.984Z,18.80
2022-12-11T06:11:02.334Z,17.05
2022-12-11T06:13:29.338Z,18.23
2022-12-11T06:15:56.028Z,17.92
2022-12-11T06:18:22.744Z,19.05
2022-12-11T06:20:49.395Z,18.63
2022-12-11T06:23:16.037Z,18.00
2022-12-11T06:25:42.705Z,16.23
2022-12-11T06:28:09.436Z,18.27
2022-12-11T06:30:37.624Z,16.05
2022-12-11T06:33:06.520Z,17.88
2022-12-11T06:35:37.355Z,17.50
2022-12-11T06:38:08.652Z,16.20
2022-12-11T06:40:35.312Z,15.98
2022-12-11T06:43:02.026Z,17.23
2022-12-11T06:45:28.739Z,18.35
2022-12-11T06:47:55.759Z,17.75
2022-12-11T06:50:22.450Z,16.45
2022-12-11T06:52:49.092Z,18.42
2022-12-11T06:55:15.781Z,15.02
2022-12-11T06:57:42.449Z,15.73
2022-12-11T07:00:09.845Z,16.60
2022-12-11T07:02:36.558Z,14.45
2022-12-11T07:05:05.855Z,16.35
2022-12-11T07:07:32.874Z,15.70
2022-12-11T07:10:07.325Z,17.27
2022-12-11T07:12:34.914Z,14.73
2022-12-11T07:15:03.876Z,17.58
2022-12-11T07:17:30.929Z,14.40
2022-12-11T07:19:57.725Z,15.85
2022-12-11T07:22:24.553Z,14.50
2022-12-11T07:24:51.314Z,14.82
2022-12-11T07:27:18.060Z,15.70
2022-12-11T07:29:45.108Z,15.32
2022-12-11T07:32:11.839Z,15.00
2022-12-11T07:34:38.930Z,16.02
2022-12-11T07:37:05.729Z,15.70
2022-12-11T07:39:32.388Z,15.20
2022-12-11T07:41:59.061Z,16.05
2022-12-11T07:44:26.194Z,15.60
2022-12-11T07:46:52.820Z,15.30
2022-12-11T07:49:19.487Z,15.48
2022-12-11T07:51:46.271Z,13.27
2022-12-11T07:54:16.730Z,15.68
2022-12-11T07:56:53.207Z,14.65
2022-12-11T08:04:15.960Z,15.63
2022-12-11T08:06:43.803Z,16.02
2022-12-11T08:09:19.080Z,15.48
2022-12-11T08:11:49.958Z,14.95
2022-12-11T08:14:18.884Z,15.43
2022-12-11T08:16:45.681Z,14.80
2022-12-11T08:19:13.394Z,14.40
2022-12-11T08:21:40.505Z,18.20
2022-12-11T08:24:08.120Z,17.35
2022-12-11T08:26:34.966Z,16.50
2022-12-11T08:29:03.164Z,15.55
2022-12-11T08:31:30.659Z,16.33
2022-12-11T08:33:58.143Z,18.45
2022-12-11T08:36:25.549Z,16.42
2022-12-11T08:38:54.852Z,15.98
2022-12-11T08:41:27.502Z,15.55
2022-12-11T08:43:55.414Z,16.40
2022-12-11T08:46:27.750Z,16.73
2022-12-11T08:48:54.973Z,17.15
2022-12-11T08:51:24.219Z,21.13
2022-12-11T08:53:51.445Z,16.42
2022-12-11T08:56:20.854Z,17.48
2022-12-11T08:58:47.918Z,17.90
2022-12-11T09:01:21.781Z,17.65
2022-12-11T09:03:49.781Z,18.25
2022-12-11T09:06:18.989Z,16.73
2022-12-11T09:08:52.305Z,17.20
2022-12-11T09:11:25.957Z,17.67
2022-12-11T09:13:53.420Z,17.10
2022-12-11T09:16:22.503Z,15.98
2022-12-11T09:18:51.367Z,16.83
2022-12-11T09:21:21.445Z,16.55
2022-12-11T09:23:48.172Z,19.30
2022-12-11T09:26:17.538Z,17.92
2022-12-11T09:28:46.942Z,17.45
2022-12-11T09:31:15.288Z,14.88
2022-12-11T09:33:42.037Z,14.13
2022-12-11T09:36:10.729Z,15.52
2022-12-11T09:38:37.967Z,14.00
2022-12-11T09:41:30.974Z,16.10
2022-12-11T09:44:21.024Z,15.55
2022-12-11T09:46:49.078Z,14.90
2022-12-11T09:49:47.131Z,15.55
2022-12-11T09:52:32.200Z,17.25
2022-12-11T09:55:15.023Z,14.98
2022-12-11T09:58:00.194Z,16.10
2022-12-11T10:00:37.605Z,18.30
2022-12-11T10:03:19.571Z,14.63
2022-12-11T10:06:04.284Z,17.45
2022-12-11T10:08:53.451Z,14.57
2022-12-11T10:11:31.946Z,16.80
2022-12-11T10:14:40.521Z,14.80
2022-12-11T10:17:17.961Z,13.23
2022-12-11T10:19:46.529Z,13.27
2022-12-11T10:22:34.960Z,14.50
2022-12-11T10:25:11.503Z,16.00
2022-12-11T10:27:40.602Z,13.90
2022-12-11T10:30:13.366Z,14.13
2022-12-11T10:32:48.895Z,14.73
2022-12-11T10:35:31.633Z,17.10
2022-12-11T10:38:20.646Z,17.20
2022-12-11T10:40:53.749Z,15.48
2022-12-11T10:43:20.540Z,16.63
2022-12-11T10:45:54.886Z,15.75
2022-12-11T10:48:22.226Z,17.30
2022-12-11T10:51:02.717Z,16.92
2022-12-11T10:53:31.429Z,19.15
2022-12-11T10:55:58.690Z,18.85
2022-12-11T10:58:28.841Z,18.52
2022-12-11T11:01:15.699Z,20.25
2022-12-11T11:04:15.508Z,19.23
2022-12-11T11:06:42.304Z,18.27
2022-12-11T11:09:30.197Z,19.17
2022-12-11T11:11:56.867Z,19.38
2022-12-11T11:14:25.308Z,20.42
2022-12-11T11:16:56.848Z,18.52
2022-12-11T11:19:37.066Z,19.92
2022-12-11T11:22:16.243Z,19.38
2022-12-11T11:25:05.219Z,18.90
2022-12-11T11:27:49.417Z,18.50
2022-12-11T11:30:29.643Z,19.58
2022-12-11T11:33:14.217Z,19.33
2022-12-11T11:35:53.022Z,18.23
2022-12-11T11:38:23.535Z,19.25
2022-12-11T11:41:14.665Z,20.15
2022-12-11T11:43:46.578Z,20.10
2022-12-11T11:46:28.858Z,19.02
2022-12-11T11:49:13.814Z,20.40
2022-12-11T11:51:53.551Z,19.23
2022-12-11T11:54:40.008Z,18.55
2022-12-11T11:57:29.792Z,20.33
2022-12-11T12:00:10.102Z,18.50
2022-12-11T12:02:38.150Z,16.17
2022-12-11T12:05:05.603Z,18.27
2022-12-11T12:08:14.319Z,16.63
2022-12-11T12:10:52.978Z,20.33
2022-12-11T12:13:55.356Z,19.20
2022-12-11T12:16:54.211Z,19.15
2022-12-11T12:19:29.871Z,17.48
2022-12-11T12:22:01.004Z,20.45
2022-12-11T12:24:33.646Z,18.55
2022-12-11T12:27:51.192Z,19.48
2022-12-11T12:30:22.406Z,19.17
2022-12-11T12:33:18.717Z,20.58
2022-12-11T12:36:06.436Z,17.23
2022-12-11T12:38:48.826Z,17.48
2022-12-11T12:41:24.160Z,16.75
2022-12-11T12:44:06.018Z,18.58
2022-12-11T12:47:24.622Z,17.55
2022-12-11T12:49:54.472Z,17.65
2022-12-11T12:52:33.245Z,17.70
2022-12-11T12:55:15.073Z,17.08
2022-12-11T12:57:48.115Z,15.38
2022-12-11T13:00:30.423Z,15.48
2022-12-11T13:02:58.346Z,14.43
2022-12-11T13:05:32.178Z,14.43
2022-12-11T13:08:06.532Z,15.70
2022-12-11T13:10:37.290Z,16.92
2022-12-11T13:13:06.277Z,17.00
2022-12-11T13:15:43.820Z,15.63
2022-12-11T13:18:36.967Z,16.95
2022-12-11T13:21:34.026Z,17.10
2022-12-11T13:24:15.349Z,16.13
2022-12-11T13:26:42.487Z,18.63
2022-12-11T13:29:39.109Z,16.60
2022-12-11T13:32:18.106Z,18.90
2022-12-11T13:34:54.614Z,15.95
2022-12-11T13:37:34.385Z,16.45
2022-12-11T13:40:06.169Z,17.05
2022-12-11T13:42:53.865Z,18.85
2022-12-11T13:45:29.901Z,16.02
2022-12-11T13:47:58.858Z,16.33
2022-12-11T13:50:31.739Z,16.88
2022-12-11T13:53:01.490Z,16.33
2022-12-11T13:55:31.232Z,17.02
2022-12-11T13:57:58.764Z,19.95
2022-12-11T14:00:30.222Z,17.02
2022-12-11T14:03:01.541Z,15.02
2022-12-11T14:05:29.037Z,16.50
2022-12-11T14:07:58.755Z,14.60
2022-12-11T14:10:32.182Z,15.15
2022-12-11T14:13:06.928Z,19.30
2022-12-11T14:15:36.260Z,14.52
2022-12-11T14:18:05.408Z,19.08
2022-12-11T14:20:34.233Z,18.30
2022-12-11T14:23:16.211Z,18.25
2022-12-11T14:25:53.439Z,16.55
2022-12-11T14:28:21.188Z,16.67
2022-12-11T14:30:51.835Z,16.85
2022-12-11T14:33:23.067Z,14.98
2022-12-11T14:35:52.290Z,17.17
2022-12-11T14:38:35.018Z,16.08
2022-12-11T14:41:08.181Z,16.75
2022-12-11T14:43:45.323Z,16.35
2022-12-11T14:46:21.409Z,15.63
2022-12-11T14:49:03.815Z,14.52
2022-12-11T14:51:39.767Z,15.68
2022-12-11T14:54:08.453Z,15.27
2022-12-11T14:56:36.273Z,16.90
2022-12-11T14:59:09.286Z,14.75
2022-12-11T15:01:39.535Z,14.30
2022-12-11T15:04:24.962Z,16.48
2022-12-11T15:06:52.604Z,16.17
2022-12-11T15:09:29.889Z,14.45
2022-12-11T15:12:10.668Z,16.75
2022-12-11T15:14:55.652Z,15.52
2022-12-11T15:17:24.159Z,16.48
2022-12-11T15:19:57.190Z,17.27
2022-12-11T15:22:30.550Z,16.83
2022-12-11T15:25:03.719Z,17.25
2022-12-11T15:27:36.981Z,16.67
2022-12-11T15:30:16.118Z,16.13
2022-12-11T15:32:43.058Z,17.38
2022-12-11T15:35:27.930Z,17.95
2022-12-11T15:38:01.142Z,16.85
2022-12-11T15:40:29.297Z,18.17
2022-12-11T15:42:57.004Z,18.08
2022-12-11T15:45:28.661Z,17.08
2022-12-11T15:47:55.727Z,16.55
2022-12-11T15:50:29.624Z,15.60
2022-12-11T15:52:57.266Z,17.00
2022-12-11T15:55:30.039Z,17.63
2022-12-11T15:58:14.206Z,17.70
2022-12-11T16:00:43.594Z,19.40
2022-12-11T16:03:17.802Z,17.80
2022-12-11T16:05:44.779Z,15.65
2022-12-11T16:08:16.993Z,15.13
2022-12-11T16:10:45.748Z,15.30
2022-12-11T16:13:13.422Z,14.00
2022-12-11T16:15:46.153Z,13.65
2022-12-11T16:18:16.323Z,14.98
2022-12-11T16:20:45.122Z,13.65
2022-12-11T16:23:13.493Z,15.40
2022-12-11T16:25:41.885Z,16.00
2022-12-11T16:28:10.679Z,13.07
2022-12-11T16:30:38.447Z,13.20
2022-12-11T16:33:12.141Z,13.85
2022-12-11T16:36:03.811Z,12.38
2022-12-11T16:38:30.563Z,14.23
2022-12-11T16:41:12.552Z,13.38
2022-12-11T16:43:40.404Z,13.00
2022-12-11T16:46:07.449Z,12.65
2022-12-11T16:48:34.502Z,12.23
2022-12-11T16:51:01.587Z,12.38
2022-12-11T16:53:28.300Z,12.55
2022-12-11T16:55:55.906Z,13.23
2022-12-11T16:58:22.788Z,12.77
2022-12-11T17:00:49.963Z,10.98
2022-12-11T17:03:18.166Z,12.23
2022-12-11T17:05:45.489Z,11.20
2022-12-11T17:08:12.298Z,14.02
2022-12-11T17:10:41.179Z,12.23
2022-12-11T17:13:08.372Z,13.30
2022-12-11T17:15:42.572Z,12.80
2022-12-11T17:18:10.788Z,10.73
2022-12-11T17:20:42.371Z,11.77
2022-12-11T17:23:11.174Z,12.00
2022-12-11T17:25:42.985Z,13.43
2022-12-11T17:28:11.242Z,15.45
2022-12-11T17:30:45.528Z,17.20
2022-12-11T17:33:12.803Z,16.80
2022-12-11T17:35:39.946Z,15.18
2022-12-11T17:38:20.400Z,17.73
2022-12-11T17:41:35.480Z,17.23
2022-12-11T17:44:37.246Z,15.57
2022-12-11T17:47:15.729Z,16.85
2022-12-11T17:49:48.844Z,16.88
2022-12-11T17:59:19.644Z,15.40
2022-12-11T18:05:58.793Z,14.82
2022-12-11T18:11:16.648Z,17.55
2022-12-11T18:14:24.256Z,17.23
2022-12-11T18:16:57.084Z,17.33
2022-12-11T18:19:31.097Z,15.93
2022-12-11T18:27:03.903Z,17.05
2022-12-11T18:36:52.200Z,15.38
2022-12-11T18:49:09.657Z,15.27
2022-12-11T19:09:24.274Z,15.38
2022-12-11T19:12:00.307Z,15.02
2022-12-11T19:17:33.391Z,13.55
2022-12-11T19:20:18.812Z,13.32
2022-12-11T19:22:47.649Z,13.93
2022-12-11T19:25:14.544Z,13.10
2022-12-11T19:27:41.411Z,13.02
2022-12-11T19:30:11.820Z,15.02
2022-12-11T19:32:38.672Z,13.55
2022-12-11T19:35:16.787Z,13.20
2022-12-11T19:37:49.733Z,13.15
2022-12-11T19:40:16.685Z,13.27
2022-12-11T19:42:46.592Z,13.70
2022-12-11T19:45:14.347Z,14.50
2022-12-11T19:47:44.773Z,14.55
2022-12-11T19:50:11.450Z,16.45
2022-12-11T19:52:42.873Z,14.65
2022-12-11T19:55:15.211Z,13.32
2022-12-11T19:57:41.943Z,13.73
2022-12-11T20:00:09.052Z,15.23
2022-12-11T20:02:35.815Z,12.68
2022-12-11T20:05:02.495Z,12.40
2022-12-11T20:07:30.820Z,14.43
2022-12-11T20:10:00.258Z,14.95
2022-12-11T20:12:27.231Z,15.00
2022-12-11T20:14:54.111Z,13.77
2022-12-11T20:17:21.322Z,14.10
2022-12-11T20:19:48.570Z,12.15
2022-12-11T20:22:15.454Z,12.25
2022-12-11T20:24:42.134Z,13.40
2022-12-11T20:27:09.641Z,12.07
2022-12-11T20:29:37.444Z,13.05
2022-12-11T20:32:05.098Z,14.23
2022-12-11T20:34:32.384Z,13.00
2022-12-11T20:37:00.453Z,12.20
2022-12-11T20:39:27.160Z,12.90
2022-12-11T20:41:53.973Z,14.82
2022-12-11T20:44:21.022Z,12.43
2022-12-11T20:46:47.961Z,14.27
2022-12-11T20:49:14.742Z,13.88
2022-12-11T20:51:41.686Z,13.13
2022-12-11T20:54:08.725Z,13.77
2022-12-11T20:56:36.498Z,15.10
2022-12-11T20:59:03.484Z,13.38
2022-12-11T21:01:32.290Z,13.63
2022-12-11T21:03:59.615Z,15.55
2022-12-11T21:06:32.999Z,13.15
2022-12-11T21:09:02.129Z,13.85
2022-12-11T21:11:31.238Z,14.63
2022-12-11T21:13:58.161Z,14.43
2022-12-11T21:16:25.718Z,13.02
2022-12-11T21:18:52.485Z,12.27
2022-12-11T21:21:19.352Z,15.05
2022-12-11T21:23:46.117Z,14.80
2022-12-11T21:26:13.340Z,13.70
2022-12-11T21:28:41.385Z,13.57
2022-12-11T21:31:14.056Z,14.50
2022-12-11T21:33:40.974Z,13.55
2022-12-11T21:36:11.045Z,12.07
2022-12-11T21:38:38.688Z,13.73
2022-12-11T21:41:17.151Z,12.68
2022-12-11T21:44:32.918Z,12.95
2022-12-11T21:46:32.241Z,12.07
2022-12-11T21:48:59.075Z,14.15
2022-12-11T21:51:37.726Z,14.75
2022-12-11T21:54:09.275Z,14.20
2022-12-11T21:56:36.223Z,13.98
2022-12-11T21:59:04.480Z,13.50
2022-12-11T22:01:35.272Z,15.15
2022-12-11T22:04:02.086Z,13.75
2022-12-11T22:06:28.945Z,12.95
2022-12-11T22:08:56.158Z,12.10
2022-12-11T22:11:30.051Z,13.07
2022-12-11T22:13:57.056Z,12.82
2022-12-11T22:16:24.227Z,14.80
2022-12-11T22:18:51.178Z,13.63
2022-12-11T22:21:18.487Z,13.45
2022-12-11T22:23:45.234Z,14.45
2022-12-11T22:26:17.894Z,13.48
2022-12-11T22:28:44.593Z,11.63
2022-12-11T22:31:14.390Z,14.32
2022-12-11T22:33:45.250Z,12.60
2022-12-11T22:36:13.263Z,13.75
2022-12-11T22:38:40.049Z,13.95
2022-12-11T22:41:23.186Z,14.23
2022-12-11T22:43:50.585Z,14.38
2022-12-11T22:46:19.242Z,14.20
2022-12-11T22:48:45.996Z,11.90
2022-12-11T22:51:13.136Z,13.52
2022-12-11T22:53:40.933Z,13.10
2022-12-11T22:56:09.457Z,12.73
2022-12-11T22:58:36.528Z,13.57
2022-12-11T23:01:07.958Z,12.45
2022-12-11T23:03:34.640Z,12.80
2022-12-11T23:06:05.600Z,15.50
2022-12-11T23:08:33.172Z,13.50
2022-12-11T23:11:00.085Z,15.05
2022-12-11T23:13:26.770Z,13.90
2022-12-11T23:15:53.504Z,13.60
2022-12-11T23:18:20.239Z,11.52
2022-12-11T23:20:47.088Z,13.93
2022-12-11T23:23:14.206Z,15.50
2022-12-11T23:25:40.871Z,13.90
2022-12-11T23:28:07.535Z,15.30
2022-12-11T23:30:34.287Z,14.43
2022-12-11T23:33:01.026Z,15.02
2022-12-11T23:35:27.720Z,13.10
2022-12-11T23:37:54.370Z,15.50
2022-12-11T23:40:21.070Z,13.57
2022-12-11T23:42:47.781Z,15.02
2022-12-11T23:45:14.771Z,14.95
2022-12-11T23:47:41.683Z,14.68
2022-12-11T23:50:08.806Z,14.98
2022-12-11T23:52:35.661Z,15.32
2022-12-11T23:55:02.343Z,13.80
2022-12-11T23:57:28.973Z,14.70
2022-12-11T23:59:55.619Z,14.80
